createdAt,value
2023-01-19T00:00:44.765Z,3.00
2023-01-19T00:01:44.790Z,3.20
2023-01-19T00:02:44.846Z,3.20
2023-01-19T00:03:44.826Z,3.10
2023-01-19T00:04:44.946Z,3.30
2023-01-19T00:05:44.853Z,3.10
2023-01-19T00:06:44.878Z,3.00
2023-01-19T00:07:44.891Z,3.10
2023-01-19T00:08:44.905Z,3.00
2023-01-19T00:09:44.933Z,2.90
2023-01-19T00:10:44.942Z,3.30
2023-01-19T00:11:44.962Z,3.00
2023-01-19T00:12:44.981Z,2.90
2023-01-19T00:13:44.996Z,3.10
2023-01-19T00:14:45.021Z,3.30
2023-01-19T00:15:45.038Z,3.20
2023-01-19T00:16:45.057Z,3.10
2023-01-19T00:17:45.068Z,3.00
2023-01-19T00:18:45.096Z,3.20
2023-01-19T00:19:45.103Z,3.10
2023-01-19T00:20:45.145Z,2.80
2023-01-19T00:21:45.139Z,3.00
2023-01-19T00:22:45.190Z,3.00
2023-01-19T00:23:45.184Z,3.10
2023-01-19T00:24:45.199Z,3.10
2023-01-19T00:25:45.223Z,3.20
2023-01-19T00:26:45.227Z,2.80
2023-01-19T00:27:45.250Z,3.00
2023-01-19T00:28:45.287Z,3.10
2023-01-19T00:29:45.291Z,2.90
2023-01-19T00:30:45.299Z,3.20
2023-01-19T00:31:45.405Z,3.00
2023-01-19T00:32:45.338Z,3.10
2023-01-19T00:33:45.352Z,2.90
2023-01-19T00:34:45.385Z,3.20
2023-01-19T00:35:45.412Z,2.90
2023-01-19T00:36:45.435Z,2.90
2023-01-19T00:37:45.432Z,2.90
2023-01-19T00:38:45.445Z,3.10
2023-01-19T00:39:45.475Z,2.90
2023-01-19T00:40:45.479Z,3.10
2023-01-19T00:41:45.499Z,3.30
2023-01-19T00:42:45.541Z,3.00
2023-01-19T00:43:45.550Z,3.10
2023-01-19T00:44:45.558Z,3.10
2023-01-19T00:45:45.589Z,3.10
2023-01-19T00:46:45.592Z,3.20
2023-01-19T00:47:45.614Z,3.30
2023-01-19T00:48:45.631Z,3.40
2023-01-19T00:49:45.645Z,3.10
2023-01-19T00:50:45.657Z,3.30
2023-01-19T00:51:45.676Z,3.20
2023-01-19T00:52:45.716Z,3.10
2023-01-19T00:53:45.723Z,3.30
2023-01-19T00:54:45.727Z,3.00
2023-01-19T00:55:45.751Z,3.30
2023-01-19T00:56:45.769Z,3.00
2023-01-19T00:57:45.789Z,3.00
2023-01-19T00:58:45.799Z,3.10
2023-01-19T00:59:45.823Z,3.00
2023-01-19T01:00:45.892Z,3.40
2023-01-19T01:01:46.656Z,3.20
2023-01-19T01:02:46.118Z,3.10
2023-01-19T01:03:45.888Z,3.30
2023-01-19T01:04:45.913Z,3.10
2023-01-19T01:05:45.934Z,3.20
2023-01-19T01:06:45.955Z,2.90
2023-01-19T01:07:45.975Z,3.10
2023-01-19T01:08:46.005Z,3.10
2023-01-19T01:09:46.001Z,3.10
2023-01-19T01:10:46.011Z,3.10
2023-01-19T01:11:46.030Z,2.90
2023-01-19T01:12:54.943Z,3.20
2023-01-19T01:13:46.074Z,3.10
2023-01-19T01:14:46.092Z,3.20
2023-01-19T01:15:46.106Z,3.00
2023-01-19T01:16:46.133Z,3.00
2023-01-19T01:17:46.147Z,3.10
2023-01-19T01:18:46.154Z,3.20
2023-01-19T01:19:46.171Z,3.10
2023-01-19T01:20:46.188Z,2.90
2023-01-19T01:21:46.214Z,3.10
2023-01-19T01:22:46.230Z,2.90
2023-01-19T01:23:46.251Z,3.10
2023-01-19T01:24:46.283Z,3.10
2023-01-19T01:25:46.284Z,3.20
2023-01-19T01:26:46.304Z,3.00
2023-01-19T01:27:46.321Z,3.40
2023-01-19T01:28:46.337Z,3.10
2023-01-19T01:29:46.357Z,3.10
2023-01-19T01:30:46.367Z,2.90
2023-01-19T01:31:46.489Z,3.00
2023-01-19T01:32:46.415Z,3.30
2023-01-19T01:33:46.419Z,3.30
2023-01-19T01:34:46.449Z,3.00
2023-01-19T01:35:46.458Z,3.40
2023-01-19T01:36:46.472Z,3.20
2023-01-19T01:37:46.498Z,3.40
2023-01-19T01:38:46.521Z,3.30
2023-01-19T01:39:46.532Z,3.30
2023-01-19T01:40:46.575Z,3.40
2023-01-19T01:41:46.571Z,3.10
2023-01-19T01:42:46.587Z,3.20
2023-01-19T01:43:46.606Z,3.00
2023-01-19T01:44:46.615Z,3.20
2023-01-19T01:45:46.672Z,3.10
2023-01-19T01:46:46.657Z,3.10
2023-01-19T01:47:46.666Z,3.00
2023-01-19T01:48:46.690Z,3.10
2023-01-19T01:49:46.707Z,3.30
2023-01-19T01:50:46.735Z,3.30
2023-01-19T01:51:46.740Z,3.20
2023-01-19T01:53:07.232Z,3.10
2023-01-19T01:53:46.772Z,3.30
2023-01-19T01:54:46.802Z,2.90
2023-01-19T01:55:46.813Z,3.20
2023-01-19T01:56:46.849Z,2.90
2023-01-19T01:57:46.850Z,3.20
2023-01-19T01:58:46.861Z,3.20
2023-01-19T01:59:46.880Z,3.20
2023-01-19T02:00:46.938Z,3.20
2023-01-19T02:01:47.042Z,3.20
2023-01-19T02:02:46.946Z,3.20
2023-01-19T02:03:46.950Z,3.10
2023-01-19T02:04:46.973Z,3.10
2023-01-19T02:05:46.995Z,3.00
2023-01-19T02:06:47.010Z,3.10
2023-01-19T02:07:47.020Z,3.20
2023-01-19T02:08:47.052Z,2.90
2023-01-19T02:09:47.062Z,3.10
2023-01-19T02:10:47.082Z,3.20
2023-01-19T02:11:47.090Z,3.00
2023-01-19T02:12:47.137Z,3.20
2023-01-19T02:13:47.133Z,3.10
2023-01-19T02:14:47.148Z,3.40
2023-01-19T02:15:47.164Z,3.20
2023-01-19T02:16:47.196Z,3.20
2023-01-19T02:17:47.209Z,3.10
2023-01-19T02:18:47.222Z,3.10
2023-01-19T02:19:47.231Z,3.10
2023-01-19T02:20:47.255Z,3.30
2023-01-19T02:21:47.276Z,3.00
2023-01-19T02:22:47.292Z,3.00
2023-01-19T02:23:48.122Z,3.30
2023-01-19T02:24:47.327Z,3.40
2023-01-19T02:25:47.343Z,3.10
2023-01-19T02:26:47.361Z,3.10
2023-01-19T02:27:47.372Z,3.00
2023-01-19T02:28:47.422Z,3.10
2023-01-19T02:29:47.416Z,3.10
2023-01-19T02:30:47.558Z,3.20
2023-01-19T02:31:47.451Z,3.10
2023-01-19T02:32:47.476Z,3.10
2023-01-19T02:33:47.475Z,3.30
2023-01-19T02:34:47.497Z,3.30
2023-01-19T02:35:47.511Z,3.20
2023-01-19T02:36:47.537Z,3.00
2023-01-19T02:37:47.553Z,3.30
2023-01-19T02:38:47.573Z,3.00
2023-01-19T02:39:47.592Z,3.30
2023-01-19T02:40:47.601Z,3.30
2023-01-19T02:41:47.618Z,3.30
2023-01-19T02:42:47.639Z,3.10
2023-01-19T02:43:47.655Z,3.10
2023-01-19T02:44:47.781Z,3.30
2023-01-19T02:45:47.720Z,3.30
2023-01-19T02:46:47.714Z,3.10
2023-01-19T02:47:47.721Z,3.30
2023-01-19T02:48:47.738Z,3.20
2023-01-19T02:49:47.759Z,3.10
2023-01-19T02:50:47.775Z,3.40
2023-01-19T02:51:47.813Z,3.20
2023-01-19T02:52:47.817Z,3.00
2023-01-19T02:53:47.834Z,3.40
2023-01-19T02:54:47.854Z,3.00
2023-01-19T02:55:47.864Z,3.00
2023-01-19T02:56:47.886Z,3.20
2023-01-19T02:57:47.932Z,3.30
2023-01-19T02:58:47.923Z,3.10
2023-01-19T02:59:47.941Z,3.20
2023-01-19T03:00:48.094Z,2.90
2023-01-19T03:01:48.066Z,3.10
2023-01-19T03:02:48.016Z,3.10
2023-01-19T03:03:48.014Z,3.10
2023-01-19T03:04:48.025Z,3.10
2023-01-19T03:05:48.039Z,3.00
2023-01-19T03:06:48.056Z,3.30
2023-01-19T03:07:48.105Z,3.10
2023-01-19T03:08:48.093Z,3.40
2023-01-19T03:09:48.113Z,3.10
2023-01-19T03:10:48.140Z,3.20
2023-01-19T03:11:48.157Z,3.20
2023-01-19T03:12:48.167Z,3.10
2023-01-19T03:13:48.182Z,3.10
2023-01-19T03:14:48.197Z,3.20
2023-01-19T03:15:48.283Z,3.40
2023-01-19T03:16:48.381Z,3.10
2023-01-19T03:17:48.247Z,3.00
2023-01-19T03:18:48.275Z,3.00
2023-01-19T03:19:48.295Z,3.10
2023-01-19T03:20:48.298Z,2.80
2023-01-19T03:21:48.323Z,2.90
2023-01-19T03:22:48.334Z,3.10
2023-01-19T03:23:48.364Z,3.00
2023-01-19T03:24:48.392Z,3.00
2023-01-19T03:25:48.391Z,3.20
2023-01-19T03:26:48.404Z,2.90
2023-01-19T03:27:48.431Z,2.90
2023-01-19T03:28:48.438Z,3.00
2023-01-19T03:29:48.463Z,2.90
2023-01-19T03:30:48.524Z,2.90
2023-01-19T03:31:48.499Z,2.80
2023-01-19T03:32:48.600Z,3.10
2023-01-19T03:33:48.530Z,2.90
2023-01-19T03:34:48.544Z,3.10
2023-01-19T03:35:48.586Z,3.00
2023-01-19T03:36:48.583Z,2.90
2023-01-19T03:37:48.601Z,3.00
2023-01-19T03:38:48.619Z,2.80
2023-01-19T03:39:48.643Z,3.10
2023-01-19T03:40:48.663Z,2.90
2023-01-19T03:41:48.687Z,2.80
2023-01-19T03:42:48.683Z,3.10
2023-01-19T03:43:48.701Z,2.70
2023-01-19T03:44:48.725Z,3.10
2023-01-19T03:45:48.818Z,2.90
2023-01-19T03:46:48.758Z,2.80
2023-01-19T03:47:48.782Z,3.00
2023-01-19T03:48:48.810Z,3.00
2023-01-19T03:49:48.811Z,3.10
2023-01-19T03:50:48.822Z,3.00
2023-01-19T03:51:48.850Z,2.90
2023-01-19T03:52:48.863Z,2.80
2023-01-19T03:53:48.874Z,2.80
2023-01-19T03:54:48.892Z,3.10
2023-01-19T03:55:48.911Z,2.90
2023-01-19T03:56:48.924Z,2.90
2023-01-19T03:57:48.944Z,2.90
2023-01-19T03:58:48.968Z,2.80
2023-01-19T03:59:48.979Z,2.80
2023-01-19T04:00:49.032Z,3.00
2023-01-19T04:01:49.120Z,2.90
2023-01-19T04:02:49.120Z,2.70
2023-01-19T04:03:49.053Z,3.00
2023-01-19T04:04:49.090Z,3.00
2023-01-19T04:05:49.091Z,2.80
2023-01-19T04:06:49.099Z,2.70
2023-01-19T04:07:49.126Z,2.80
2023-01-19T04:08:49.141Z,3.00
2023-01-19T04:09:49.150Z,2.90
2023-01-19T04:10:49.172Z,2.90
2023-01-19T04:11:49.194Z,2.90
2023-01-19T04:12:49.217Z,2.70
2023-01-19T04:13:49.230Z,3.00
2023-01-19T04:14:49.249Z,2.80
2023-01-19T04:15:49.310Z,2.70
2023-01-19T04:16:49.281Z,2.90
2023-01-19T04:17:49.291Z,2.80
2023-01-19T04:18:49.314Z,2.80
2023-01-19T04:19:49.332Z,3.00
2023-01-19T04:20:49.369Z,2.60
2023-01-19T04:21:49.360Z,3.00
2023-01-19T04:22:49.386Z,2.70
2023-01-19T04:23:49.395Z,2.80
2023-01-19T04:24:49.410Z,2.90
2023-01-19T04:25:49.437Z,2.80
2023-01-19T04:26:49.450Z,2.80
2023-01-19T04:27:49.473Z,2.60
2023-01-19T04:28:49.489Z,2.80
2023-01-19T04:29:49.512Z,2.80
2023-01-19T04:30:49.665Z,3.00
2023-01-19T04:31:49.557Z,3.00
2023-01-19T04:32:49.552Z,2.90
2023-01-19T04:33:49.569Z,2.70
2023-01-19T04:34:49.586Z,2.90
2023-01-19T04:35:49.610Z,2.80
2023-01-19T04:36:49.645Z,2.90
2023-01-19T04:37:49.637Z,2.70
2023-01-19T04:38:49.655Z,2.80
2023-01-19T04:39:49.673Z,3.00
2023-01-19T04:40:49.688Z,2.60
2023-01-19T04:41:49.714Z,2.80
2023-01-19T04:42:49.725Z,2.90
2023-01-19T04:43:49.752Z,2.80
2023-01-19T04:44:49.767Z,3.10
2023-01-19T04:45:49.783Z,2.70
2023-01-19T04:46:49.893Z,2.90
2023-01-19T04:47:49.824Z,2.80
2023-01-19T04:48:49.850Z,2.90
2023-01-19T04:49:49.853Z,3.00
2023-01-19T04:50:49.863Z,2.90
2023-01-19T04:51:49.885Z,2.60
2023-01-19T04:52:49.941Z,2.80
2023-01-19T04:53:49.919Z,2.80
2023-01-19T04:54:49.940Z,2.80
2023-01-19T04:55:49.950Z,2.50
2023-01-19T04:56:49.979Z,2.50
2023-01-19T04:57:49.983Z,2.70
2023-01-19T04:58:50.003Z,2.80
2023-01-19T04:59:50.030Z,2.70
2023-01-19T05:00:50.115Z,2.70
2023-01-19T05:01:50.115Z,2.70
2023-01-19T05:02:50.162Z,2.80
2023-01-19T05:03:50.095Z,2.70
2023-01-19T05:04:50.114Z,2.90
2023-01-19T05:05:50.128Z,2.60
2023-01-19T05:06:50.149Z,2.90
2023-01-19T05:07:50.158Z,2.90
2023-01-19T05:08:50.188Z,2.50
2023-01-19T05:09:50.188Z,2.70
2023-01-19T05:10:50.216Z,2.60
2023-01-19T05:11:50.224Z,2.80
2023-01-19T05:12:50.243Z,2.70
2023-01-19T05:13:51.047Z,2.80
2023-01-19T05:14:50.282Z,2.60
2023-01-19T05:15:50.360Z,2.80
2023-01-19T05:16:50.309Z,2.70
2023-01-19T05:17:50.336Z,2.60
2023-01-19T05:18:50.354Z,2.70
2023-01-19T05:19:50.371Z,2.60
2023-01-19T05:20:50.387Z,2.50
2023-01-19T05:21:50.401Z,2.80
2023-01-19T05:22:50.445Z,2.70
2023-01-19T05:23:50.439Z,2.70
2023-01-19T05:24:50.472Z,2.60
2023-01-19T05:25:50.465Z,2.50
2023-01-19T05:26:50.483Z,2.70
2023-01-19T05:27:50.503Z,2.60
2023-01-19T05:28:50.514Z,2.70
2023-01-19T05:29:50.534Z,2.70
2023-01-19T05:30:50.567Z,2.90
2023-01-19T05:31:50.673Z,2.60
2023-01-19T05:32:50.593Z,2.70
2023-01-19T05:33:50.609Z,2.60
2023-01-19T05:34:50.625Z,2.80
2023-01-19T05:35:50.644Z,2.70
2023-01-19T05:36:50.660Z,2.60
2023-01-19T05:37:50.680Z,2.70
2023-01-19T05:38:50.701Z,2.70
2023-01-19T05:39:50.715Z,2.90
2023-01-19T05:40:50.744Z,2.60
2023-01-19T05:41:50.745Z,2.70
2023-01-19T05:42:50.773Z,2.70
2023-01-19T05:43:50.783Z,2.50
2023-01-19T05:44:50.792Z,2.50
2023-01-19T05:45:50.814Z,2.50
2023-01-19T05:46:50.902Z,2.60
2023-01-19T05:47:50.843Z,2.70
2023-01-19T05:48:50.859Z,2.40
2023-01-19T05:49:50.886Z,2.70
2023-01-19T05:50:50.896Z,2.60
2023-01-19T05:51:50.922Z,2.60
2023-01-19T05:52:50.936Z,2.50
2023-01-19T05:53:50.952Z,2.70
2023-01-19T05:54:50.963Z,2.50
2023-01-19T05:55:50.980Z,2.70
2023-01-19T05:56:51.032Z,2.60
2023-01-19T05:57:51.014Z,2.70
2023-01-19T05:58:51.032Z,2.50
2023-01-19T05:59:51.058Z,2.70
2023-01-19T06:00:51.121Z,2.60
2023-01-19T06:01:51.127Z,2.60
2023-01-19T06:02:51.152Z,2.70
2023-01-19T06:03:51.124Z,2.60
2023-01-19T06:04:51.140Z,2.50
2023-01-19T06:05:51.175Z,2.70
2023-01-19T06:06:51.180Z,2.50
2023-01-19T06:07:51.185Z,2.40
2023-01-19T06:08:51.203Z,2.60
2023-01-19T06:09:51.227Z,2.50
2023-01-19T06:10:51.242Z,2.70
2023-01-19T06:11:51.262Z,2.50
2023-01-19T06:12:51.286Z,2.70
2023-01-19T06:13:51.296Z,2.70
2023-01-19T06:14:51.310Z,2.80
2023-01-19T06:15:51.333Z,2.70
2023-01-19T06:16:51.349Z,2.70
2023-01-19T06:17:51.375Z,2.60
2023-01-19T06:18:51.382Z,2.50
2023-01-19T06:19:51.392Z,2.80
2023-01-19T06:20:51.407Z,2.60
2023-01-19T06:21:51.424Z,2.80
2023-01-19T06:22:51.458Z,2.70
2023-01-19T06:23:51.471Z,2.80
2023-01-19T06:24:51.484Z,2.80
2023-01-19T06:25:51.502Z,2.60
2023-01-19T06:26:51.525Z,2.70
2023-01-19T06:27:51.527Z,2.50
2023-01-19T06:28:51.566Z,2.50
2023-01-19T06:29:51.568Z,2.80
2023-01-19T06:30:51.632Z,2.80
2023-01-19T06:31:51.655Z,2.90
2023-01-19T06:32:51.612Z,2.80
2023-01-19T06:33:51.631Z,2.70
2023-01-19T06:34:53.972Z,2.70
2023-01-19T06:35:51.685Z,2.90
2023-01-19T06:36:51.687Z,2.80
2023-01-19T06:37:51.707Z,2.70
2023-01-19T06:38:51.719Z,2.80
2023-01-19T06:39:51.739Z,3.00
2023-01-19T06:40:51.754Z,2.50
2023-01-19T06:41:51.772Z,2.70
2023-01-19T06:42:51.790Z,2.90
2023-01-19T06:43:51.819Z,2.90
2023-01-19T06:44:51.840Z,2.70
2023-01-19T06:45:51.858Z,2.70
2023-01-19T06:46:51.857Z,2.80
2023-01-19T06:47:51.870Z,2.90
2023-01-19T06:48:51.909Z,2.90
2023-01-19T06:49:51.919Z,2.90
2023-01-19T06:50:51.941Z,2.90
2023-01-19T06:51:51.948Z,3.10
2023-01-19T06:52:51.959Z,2.90
2023-01-19T06:53:51.996Z,2.80
2023-01-19T06:54:51.998Z,2.70
2023-01-19T06:55:52.009Z,2.80
2023-01-19T06:56:52.025Z,3.00
2023-01-19T06:57:52.043Z,2.80
2023-01-19T06:58:52.064Z,2.80
2023-01-19T06:59:52.075Z,3.00
2023-01-19T07:00:52.276Z,2.80
2023-01-19T07:01:52.192Z,3.00
2023-01-19T07:02:52.156Z,2.90
2023-01-19T07:03:52.149Z,3.10
2023-01-19T07:04:52.167Z,3.00
2023-01-19T07:05:52.184Z,3.00
2023-01-19T07:06:52.202Z,3.00
2023-01-19T07:07:52.211Z,2.90
2023-01-19T07:08:52.255Z,2.80
2023-01-19T07:09:53.804Z,3.00
2023-01-19T07:11:26.217Z,3.20
2023-01-19T07:11:52.276Z,3.00
2023-01-19T07:12:52.294Z,3.10
2023-01-19T07:13:52.311Z,2.90
2023-01-19T07:14:52.330Z,2.90
2023-01-19T07:15:52.346Z,2.90
2023-01-19T07:16:52.427Z,3.00
2023-01-19T07:17:52.387Z,2.90
2023-01-19T07:18:52.439Z,2.90
2023-01-19T07:19:52.412Z,3.10
2023-01-19T07:20:52.430Z,2.80
2023-01-19T07:21:52.450Z,3.10
2023-01-19T07:22:52.464Z,2.90
2023-01-19T07:23:52.485Z,3.00
2023-01-19T07:24:52.501Z,3.20
2023-01-19T07:25:52.521Z,3.10
2023-01-19T07:26:52.536Z,2.90
2023-01-19T07:27:52.562Z,2.90
2023-01-19T07:28:52.579Z,3.10
2023-01-19T07:29:52.590Z,3.30
2023-01-19T07:30:52.715Z,2.90
2023-01-19T07:31:52.668Z,3.20
2023-01-19T07:32:52.660Z,3.10
2023-01-19T07:33:53.265Z,3.10
2023-01-19T07:34:52.674Z,2.90
2023-01-19T07:35:52.692Z,3.10
2023-01-19T07:36:52.702Z,3.10
2023-01-19T07:37:52.720Z,3.00
2023-01-19T07:38:52.963Z,3.10
2023-01-19T07:39:52.763Z,3.30
2023-01-19T07:40:52.778Z,3.10
2023-01-19T07:41:52.794Z,3.00
2023-01-19T07:42:52.815Z,3.00
2023-01-19T07:43:52.831Z,3.00
2023-01-19T07:44:52.836Z,2.80
2023-01-19T07:45:52.995Z,3.00
2023-01-19T07:46:52.878Z,3.10
2023-01-19T07:47:52.889Z,3.20
2023-01-19T07:48:52.949Z,3.10
2023-01-19T07:49:52.932Z,3.30
2023-01-19T07:50:52.952Z,3.00
2023-01-19T07:51:52.965Z,3.00
2023-01-19T07:52:52.976Z,3.00
2023-01-19T07:53:52.998Z,3.30
2023-01-19T07:54:53.007Z,3.00
2023-01-19T07:55:53.031Z,3.30
2023-01-19T07:56:53.040Z,3.00
2023-01-19T07:57:53.065Z,3.10
2023-01-19T07:58:53.082Z,3.00
2023-01-19T07:59:53.091Z,3.10
2023-01-19T08:00:53.220Z,3.20
2023-01-19T08:01:53.356Z,3.20
2023-01-19T08:02:53.149Z,3.30
2023-01-19T08:03:53.165Z,3.20
2023-01-19T08:04:53.304Z,3.30
2023-01-19T08:05:53.197Z,3.30
2023-01-19T08:06:53.207Z,3.30
2023-01-19T08:07:54.188Z,3.20
2023-01-19T08:08:53.252Z,3.30
2023-01-19T08:09:53.267Z,3.10
2023-01-19T08:10:53.285Z,3.20
2023-01-19T08:11:53.293Z,3.50
2023-01-19T08:12:53.312Z,3.30
2023-01-19T08:13:53.335Z,3.50
2023-01-19T08:14:53.354Z,3.30
2023-01-19T08:15:53.479Z,3.50
2023-01-19T08:16:53.378Z,3.30
2023-01-19T08:17:53.404Z,3.40
2023-01-19T08:18:53.410Z,3.30
2023-01-19T08:19:53.428Z,3.40
2023-01-19T08:20:53.479Z,3.60
2023-01-19T08:21:53.468Z,3.40
2023-01-19T08:22:53.479Z,3.40
2023-01-19T08:23:53.530Z,3.40
2023-01-19T08:24:53.511Z,3.60
2023-01-19T08:25:53.553Z,3.30
2023-01-19T08:26:53.547Z,3.40
2023-01-19T08:27:53.561Z,3.30
2023-01-19T08:28:53.580Z,3.30
2023-01-19T08:29:53.613Z,3.60
2023-01-19T08:30:53.831Z,3.60
2023-01-19T08:31:53.751Z,3.30
2023-01-19T08:32:53.655Z,3.50
2023-01-19T08:33:53.664Z,3.60
2023-01-19T08:34:53.692Z,3.60
2023-01-19T08:35:53.722Z,3.40
2023-01-19T08:36:53.739Z,3.50
2023-01-19T08:37:53.730Z,3.60
2023-01-19T08:38:53.766Z,3.70
2023-01-19T08:39:53.764Z,3.60
2023-01-19T08:40:53.791Z,3.50
2023-01-19T08:41:53.806Z,3.30
2023-01-19T08:42:53.819Z,3.60
2023-01-19T08:43:53.840Z,3.50
2023-01-19T08:44:58.027Z,3.40
2023-01-19T08:45:53.865Z,3.40
2023-01-19T08:46:53.889Z,3.50
2023-01-19T08:47:53.908Z,3.30
2023-01-19T08:48:53.917Z,3.70
2023-01-19T08:49:53.949Z,3.60
2023-01-19T08:50:53.952Z,3.30
2023-01-19T08:51:53.983Z,3.40
2023-01-19T08:52:54.078Z,3.50
2023-01-19T08:53:54.004Z,3.40
2023-01-19T08:54:54.019Z,3.40
2023-01-19T08:55:54.036Z,3.40
2023-01-19T08:56:54.049Z,3.40
2023-01-19T08:57:54.070Z,3.50
2023-01-19T08:59:08.079Z,3.60
2023-01-19T08:59:54.128Z,3.40
2023-01-19T09:00:54.180Z,3.40
2023-01-19T09:01:54.325Z,3.40
2023-01-19T09:02:54.189Z,3.50
2023-01-19T09:03:54.169Z,3.40
2023-01-19T09:04:54.211Z,3.50
2023-01-19T09:05:54.221Z,3.40
2023-01-19T09:06:54.232Z,3.40
2023-01-19T09:07:54.248Z,3.60
2023-01-19T09:08:54.281Z,3.60
2023-01-19T09:09:54.274Z,3.40
2023-01-19T09:10:54.294Z,3.50
2023-01-19T09:11:54.311Z,3.40
2023-01-19T09:12:54.317Z,3.50
2023-01-19T09:13:54.333Z,3.40
2023-01-19T09:14:54.390Z,3.70
2023-01-19T09:15:54.397Z,3.60
2023-01-19T09:16:54.388Z,3.50
2023-01-19T09:17:54.402Z,3.60
2023-01-19T09:18:54.422Z,3.30
2023-01-19T09:19:54.438Z,3.40
2023-01-19T09:20:54.453Z,3.40
2023-01-19T09:21:54.477Z,3.20
2023-01-19T09:22:54.494Z,3.50
2023-01-19T09:23:54.510Z,3.40
2023-01-19T09:24:54.558Z,3.10
2023-01-19T09:25:54.546Z,3.30
2023-01-19T09:26:54.558Z,3.20
2023-01-19T09:27:54.570Z,3.30
2023-01-19T09:28:54.609Z,3.40
2023-01-19T09:29:54.607Z,3.30
2023-01-19T09:30:54.749Z,3.40
2023-01-19T09:31:54.770Z,3.30
2023-01-19T09:32:54.659Z,3.10
2023-01-19T09:33:54.674Z,3.50
2023-01-19T09:34:54.689Z,3.30
2023-01-19T09:35:54.710Z,3.40
2023-01-19T09:36:54.742Z,3.40
2023-01-19T09:37:54.739Z,3.30
2023-01-19T09:38:54.760Z,3.40
2023-01-19T09:39:54.825Z,3.10
2023-01-19T09:40:54.817Z,3.30
2023-01-19T09:41:54.804Z,3.20
2023-01-19T09:42:54.823Z,3.30
2023-01-19T09:43:54.844Z,3.20
2023-01-19T09:44:54.868Z,3.30
2023-01-19T09:45:54.888Z,3.20
2023-01-19T09:46:54.895Z,3.20
2023-01-19T09:47:54.914Z,3.00
2023-01-19T09:48:54.931Z,3.20
2023-01-19T09:49:54.956Z,3.60
2023-01-19T09:50:54.955Z,3.30
2023-01-19T09:51:54.979Z,3.20
2023-01-19T09:52:55.005Z,3.20
2023-01-19T09:53:55.044Z,3.20
2023-01-19T09:54:55.021Z,3.10
2023-01-19T09:55:55.047Z,3.50
2023-01-19T09:56:55.081Z,3.00
2023-01-19T09:57:55.072Z,3.20
2023-01-19T09:58:55.087Z,3.20
2023-01-19T09:59:55.105Z,3.00
2023-01-19T10:00:55.251Z,3.00
2023-01-19T10:01:55.237Z,3.30
2023-01-19T10:02:55.253Z,3.10
2023-01-19T10:03:55.182Z,3.30
2023-01-19T10:04:55.189Z,3.10
2023-01-19T10:05:55.216Z,3.10
2023-01-19T10:06:55.223Z,3.30
2023-01-19T10:07:55.241Z,3.00
2023-01-19T10:08:55.261Z,3.10
2023-01-19T10:09:55.281Z,3.10
2023-01-19T10:10:55.297Z,3.10
2023-01-19T10:11:55.313Z,3.00
2023-01-19T10:12:55.368Z,3.20
2023-01-19T10:13:55.361Z,3.30
2023-01-19T10:14:55.357Z,3.10
2023-01-19T10:15:55.443Z,2.90
2023-01-19T10:16:55.396Z,2.90
2023-01-19T10:17:55.414Z,3.00
2023-01-19T10:18:55.428Z,3.20
2023-01-19T10:19:55.440Z,3.00
2023-01-19T10:20:55.496Z,3.00
2023-01-19T10:21:55.471Z,3.10
2023-01-19T10:22:55.490Z,3.10
2023-01-19T10:23:55.510Z,3.10
2023-01-19T10:24:55.519Z,3.30
2023-01-19T10:25:55.633Z,3.10
2023-01-19T10:26:55.575Z,3.10
2023-01-19T10:27:55.586Z,3.20
2023-01-19T10:28:55.606Z,3.10
2023-01-19T10:29:55.624Z,3.00
2023-01-19T10:30:55.699Z,3.20
2023-01-19T10:31:55.710Z,3.20
2023-01-19T10:32:55.708Z,3.20
2023-01-19T10:33:55.681Z,3.20
2023-01-19T10:34:55.704Z,3.30
2023-01-19T10:35:55.705Z,3.20
2023-01-19T10:36:55.724Z,3.20
2023-01-19T10:37:55.738Z,3.30
2023-01-19T10:38:55.803Z,3.20
2023-01-19T10:39:55.776Z,3.30
2023-01-19T10:40:55.858Z,3.20
2023-01-19T10:41:55.823Z,3.20
2023-01-19T10:42:55.831Z,3.20
2023-01-19T10:43:55.845Z,3.20
2023-01-19T10:44:55.934Z,3.00
2023-01-19T10:45:55.931Z,3.10
2023-01-19T10:46:55.898Z,3.30
2023-01-19T10:47:55.990Z,3.20
2023-01-19T10:48:55.964Z,3.20
2023-01-19T10:49:55.938Z,3.50
2023-01-19T10:50:55.958Z,3.60
2023-01-19T10:51:56.029Z,3.30
2023-01-19T10:52:55.997Z,3.40
2023-01-19T10:53:56.040Z,3.20
2023-01-19T10:54:56.032Z,3.30
2023-01-19T10:55:56.085Z,3.30
2023-01-19T10:56:56.151Z,3.40
2023-01-19T10:57:56.140Z,3.50
2023-01-19T10:58:56.096Z,3.50
2023-01-19T10:59:56.161Z,3.50
2023-01-19T11:00:56.369Z,3.60
2023-01-19T11:01:56.364Z,3.50
2023-01-19T11:02:56.339Z,3.40
2023-01-19T11:03:56.267Z,3.60
2023-01-19T11:04:56.274Z,3.70
2023-01-19T11:05:56.211Z,3.70
2023-01-19T11:06:56.229Z,3.50
2023-01-19T11:07:56.257Z,3.90
2023-01-19T11:08:56.254Z,3.70
2023-01-19T11:09:56.277Z,3.90
2023-01-19T11:10:56.297Z,4.00
2023-01-19T11:11:56.310Z,3.80
2023-01-19T11:12:56.328Z,3.80
2023-01-19T11:13:56.339Z,3.90
2023-01-19T11:14:56.365Z,4.00
2023-01-19T11:15:56.379Z,3.90
2023-01-19T11:16:56.439Z,3.70
2023-01-19T11:17:56.403Z,3.90
2023-01-19T11:18:56.432Z,3.90
2023-01-19T11:19:56.448Z,4.10
2023-01-19T11:20:56.467Z,3.90
2023-01-19T11:21:56.477Z,4.10
2023-01-19T11:22:56.490Z,3.80
2023-01-19T11:23:56.521Z,3.60
2023-01-19T11:24:56.530Z,3.70
2023-01-19T11:25:56.536Z,4.10
2023-01-19T11:26:56.568Z,3.80
2023-01-19T11:27:56.578Z,3.80
2023-01-19T11:28:56.601Z,3.90
2023-01-19T11:29:56.605Z,3.70
2023-01-19T11:30:56.649Z,3.90
2023-01-19T11:31:56.668Z,3.90
2023-01-19T11:32:56.689Z,4.00
2023-01-19T11:33:56.692Z,4.00
2023-01-19T11:34:56.698Z,4.00
2023-01-19T11:35:56.717Z,4.00
2023-01-19T11:36:56.720Z,3.80
2023-01-19T11:37:56.739Z,4.00
2023-01-19T11:38:56.762Z,4.00
2023-01-19T11:39:56.771Z,4.10
2023-01-19T11:40:56.788Z,4.10
2023-01-19T11:41:56.809Z,4.00
2023-01-19T11:42:56.824Z,3.90
2023-01-19T11:43:56.844Z,3.70
2023-01-19T11:44:56.862Z,4.00
2023-01-19T11:45:56.928Z,4.30
2023-01-19T11:46:56.895Z,4.00
2023-01-19T11:47:56.909Z,4.20
2023-01-19T11:48:56.960Z,4.10
2023-01-19T11:49:56.949Z,4.40
2023-01-19T11:50:56.971Z,4.50
2023-01-19T11:51:56.969Z,4.20
2023-01-19T11:52:56.987Z,4.30
2023-01-19T11:53:57.019Z,4.30
2023-01-19T11:54:57.028Z,4.10
2023-01-19T11:55:57.042Z,4.10
2023-01-19T11:56:57.081Z,4.30
2023-01-19T11:57:57.076Z,4.50
2023-01-19T11:58:57.094Z,4.60
2023-01-19T11:59:57.104Z,4.70
2023-01-19T12:00:57.150Z,4.80
2023-01-19T12:01:57.149Z,4.50
2023-01-19T12:02:57.154Z,4.80
2023-01-19T12:03:57.182Z,4.60
2023-01-19T12:04:57.218Z,4.80
2023-01-19T12:05:57.204Z,4.60
2023-01-19T12:06:57.226Z,4.70
2023-01-19T12:07:57.245Z,4.90
2023-01-19T12:08:57.265Z,4.70
2023-01-19T12:09:57.268Z,4.40
2023-01-19T12:10:57.290Z,4.70
2023-01-19T12:11:57.303Z,5.00
2023-01-19T12:12:57.330Z,4.50
2023-01-19T12:13:57.335Z,4.90
2023-01-19T12:14:57.353Z,5.20
2023-01-19T12:15:57.388Z,5.00
2023-01-19T12:16:57.391Z,5.30
2023-01-19T12:17:57.402Z,5.00
2023-01-19T12:18:57.428Z,4.90
2023-01-19T12:19:57.461Z,4.60
2023-01-19T12:20:57.519Z,5.40
2023-01-19T12:21:57.469Z,5.70
2023-01-19T12:22:59.520Z,5.10
2023-01-19T12:23:57.584Z,5.60
2023-01-19T12:24:57.528Z,5.40
2023-01-19T12:25:58.178Z,5.00
2023-01-19T12:26:57.579Z,5.10
2023-01-19T12:27:57.572Z,5.00
2023-01-19T12:28:57.593Z,4.80
2023-01-19T12:29:57.611Z,5.30
2023-01-19T12:30:57.756Z,5.40
2023-01-19T12:31:57.753Z,5.40
2023-01-19T12:32:57.661Z,5.20
2023-01-19T12:33:57.671Z,5.30
2023-01-19T12:34:57.694Z,4.90
2023-01-19T12:35:57.714Z,4.80
2023-01-19T12:36:57.744Z,5.10
2023-01-19T12:37:57.752Z,5.60
2023-01-19T12:38:57.757Z,5.50
2023-01-19T12:39:57.772Z,6.20
2023-01-19T12:40:57.795Z,5.30
2023-01-19T12:41:58.419Z,5.20
2023-01-19T12:42:57.828Z,5.20
2023-01-19T12:43:57.842Z,5.10
2023-01-19T12:44:57.853Z,5.30
2023-01-19T12:45:57.906Z,4.70
2023-01-19T12:46:57.893Z,5.50
2023-01-19T12:47:57.913Z,5.10
2023-01-19T12:48:57.925Z,5.40
2023-01-19T12:49:57.944Z,5.60
2023-01-19T12:50:57.955Z,5.70
2023-01-19T12:51:57.971Z,5.30
2023-01-19T12:52:58.021Z,5.20
2023-01-19T12:53:58.011Z,5.10
2023-01-19T12:54:58.028Z,5.20
2023-01-19T12:55:58.039Z,5.40
2023-01-19T12:56:58.060Z,5.40
2023-01-19T12:57:58.075Z,5.40
2023-01-19T12:58:58.086Z,5.10
2023-01-19T12:59:58.107Z,5.70
2023-01-19T13:00:58.237Z,6.20
2023-01-19T13:01:58.177Z,5.20
2023-01-19T13:02:58.225Z,5.10
2023-01-19T13:03:58.180Z,5.80
2023-01-19T13:04:58.187Z,5.60
2023-01-19T13:05:58.220Z,5.50
2023-01-19T13:06:58.244Z,5.90
2023-01-19T13:07:58.252Z,5.80
2023-01-19T13:08:58.277Z,6.20
2023-01-19T13:09:58.273Z,5.80
2023-01-19T13:10:58.295Z,5.50
2023-01-19T13:12:01.008Z,5.50
2023-01-19T13:12:58.328Z,5.80
2023-01-19T13:13:58.355Z,6.00
2023-01-19T13:14:58.688Z,5.40
2023-01-19T13:15:58.456Z,5.70
2023-01-19T13:16:58.389Z,5.70
2023-01-19T13:17:58.416Z,5.60
2023-01-19T13:18:58.433Z,5.50